Latest Coastal Weather Observations for Outer Harbor (Black Pole)

IDS60701

Issued at 3:21 pm CST Monday 27 May 2019 (issued every 10 minutes, with the page automatically refreshed every 10 minutes)

About coastal observations | Map of coastal stations | Coastal observations for SA | Marine services | Other Formats
Station Details ID: 023052 Name: BLACK POLE Lat: -34.73 Lon: 138.47 Height: 6.27 m
Data from the previous 72 hours. | See also: Recent months for locations in South Australia
Date/Time
CST
Wind Sea
Height
m
Swell Vis
km
Cloud Weather Temp
°C
Press
hPa
Rain since
9am
mm
Dir  Spd
kts
Gust
kts
Height
m
Period
s
Dir
27/03:00pm SW 17 20 - - - - - - - - - -
27/02:30pm SW 16 19 - - - - - - - - - -
27/02:00pm SW 17 22 - - - - - - - - - -
27/01:30pm SW 19 23 - - - - - - - - - -
27/01:00pm SW 19 23 - - - - - - - - - -
27/12:30pm SW 19 24 - - - - - - - - - -
27/12:00pm SW 20 24 - - - - - - - - - -
27/11:30am SW 21 26 - - - - - - - - - -
27/11:00am SW 22 28 - - - - - - - - - -
27/10:30am SW 22 29 - - - - - - - - - -
27/10:00am SW 21 25 - - - - - - - - - -
27/09:30am SW 22 29 - - - - - - - - - -
27/09:00am SW 22 28 - - - - - - - - - -
27/08:30am SW 23 30 - - - - - - - - - -
27/08:00am SW 25 30 - - - - - - - - - -
27/07:30am SW 24 31 - - - - - - - - - -
27/07:00am SW 26 34 - - - - - - - - - -
27/06:30am SW 25 31 - - - - - - - - - -
27/06:00am SW 24 31 - - - - - - - - - -
27/05:30am SW 24 30 - - - - - - - - - -
27/05:00am SW 23 28 - - - - - - - - - -
27/04:30am SW 25 30 - - - - - - - - - -
27/04:00am SW 24 30 - - - - - - - - - -
27/03:30am SW 24 29 - - - - - - - - - -
27/03:00am WSW 23 29 - - - - - - - - - -
27/02:30am SW 24 31 - - - - - - - - - -
27/02:00am SW 25 33 - - - - - - - - - -
27/01:30am SW 25 32 - - - - - - - - - -
27/01:05am SW 20 31 - - - - - - - - - -
27/01:00am SW 18 23 - - - - - - - - - -
27/12:30am SW 23 31 - - - - - - - - - -
27/12:00am WSW 22 29 - - - - - - - - - -
 
Date/Time
CST
Wind Sea
Height
m
Swell Vis
km
Cloud Weather Temp
°C
Press
hPa
Rain since
9am
mm
Dir  Spd
kts
Gust
kts
Height
m
Period
s
Dir
26/11:30pm WSW 22 28 - - - - - - - - - -
26/11:00pm WSW 21 25 - - - - - - - - - -
26/10:30pm W 22 27 - - - - - - - - - -
26/10:00pm W 22 28 - - - - - - - - - -
26/09:30pm W 21 26 - - - - - - - - - -
26/09:00pm W 21 24 - - - - - - - - - -
26/08:30pm W 22 28 - - - - - - - - - -
26/08:00pm W 21 26 - - - - - - - - - -
26/07:35pm W 25 35 - - - - - - - - - -
26/07:30pm W 28 37 - - - - - - - - - -
26/07:22pm W 23 34 - - - - - - - - - -
26/07:00pm W 20 24 - - - - - - - - - -
26/06:30pm W 23 29 - - - - - - - - - -
26/06:04pm WNW 23 36 - - - - - - - - - -
26/06:00pm WNW 21 25 - - - - - - - - - -
26/05:30pm WNW 22 28 - - - - - - - - - -
26/05:00pm WNW 22 27 - - - - - - - - - -
26/04:30pm WNW 22 27 - - - - - - - - - -
26/04:00pm WNW 21 26 - - - - - - - - - -
26/03:30pm W 16 21 - - - - - - - - - -
26/03:00pm W 18 25 - - - - - - - - - -
26/02:54pm W 17 24 - - - - - - - - - -
26/02:30pm WNW 21 26 - - - - - - - - - -
26/02:00pm WNW 20 25 - - - - - - - - - -
26/01:30pm W 21 29 - - - - - - - - - -
26/01:00pm WNW 18 24 - - - - - - - - - -
26/12:30pm WNW 19 23 - - - - - - - - - -
26/12:00pm NW 14 17 - - - - - - - - - -
26/11:30am WNW 16 20 - - - - - - - - - -
26/11:00am WNW 19 23 - - - - - - - - - -
26/10:30am WNW 17 21 - - - - - - - - - -
26/10:00am W 17 20 - - - - - - - - - -
26/09:30am W 14 18 - - - - - - - - - -
26/09:00am WSW 16 20 - - - - - - - - - -
26/08:30am W 15 18 - - - - - - - - - -
26/08:00am W 14 17 - - - - - - - - - -
26/07:30am W 14 17 - - - - - - - - - -
26/07:00am W 17 20 - - - - - - - - - -
26/06:30am W 17 21 - - - - - - - - - -
26/06:00am W 14 17 - - - - - - - - - -
26/05:30am W 14 16 - - - - - - - - - -
26/05:00am W 16 19 - - - - - - - - - -
26/04:30am WSW 16 20 - - - - - - - - - -
26/04:00am WSW 17 20 - - - - - - - - - -
26/03:30am WSW 18 21 - - - - - - - - - -
26/03:00am WSW 17 21 - - - - - - - - - -
26/02:30am WSW 15 17 - - - - - - - - - -
26/02:00am WSW 15 18 - - - - - - - - - -
26/01:30am WSW 17 21 - - - - - - - - - -
26/01:00am WSW 15 19 - - - - - - - - - -
26/12:30am WSW 15 18 - - - - - - - - - -
26/12:00am WSW 15 19 - - - - - - - - - -
 
Date/Time
CST
Wind Sea
Height
m
Swell Vis
km
Cloud Weather Temp
°C
Press
hPa
Rain since
9am
mm
Dir  Spd
kts
Gust
kts
Height
m
Period
s
Dir
25/11:30pm SW 15 19 - - - - - - - - - -
25/11:00pm WSW 14 17 - - - - - - - - - -
25/10:30pm WSW 16 18 - - - - - - - - - -
25/10:00pm WSW 16 21 - - - - - - - - - -
25/09:30pm SW 19 25 - - - - - - - - - -
25/09:00pm WSW 19 23 - - - - - - - - - -
25/08:30pm WSW 19 25 - - - - - - - - - -
25/08:00pm WSW 19 24 - - - - - - - - - -
25/07:30pm WSW 19 22 - - - - - - - - - -
25/07:00pm WSW 17 21 - - - - - - - - - -
25/06:30pm WSW 18 22 - - - - - - - - - -
25/06:00pm WSW 21 24 - - - - - - - - - -
25/05:30pm SW 19 23 - - - - - - - - - -
25/05:00pm SW 17 21 - - - - - - - - - -
25/04:30pm WSW 10 12 - - - - - - - - - -
25/04:00pm SW 10 11 - - - - - - - - - -
25/03:30pm SW 11 14 - - - - - - - - - -
25/03:00pm W 13 18 - - - - - - - - - -
25/02:30pm W 12 13 - - - - - - - - - -
25/02:00pm WSW 15 25 - - - - - - - - - -
25/01:30pm W 13 16 - - - - - - - - - -
25/01:00pm W 14 17 - - - - - - - - - -
25/12:30pm W 19 25 - - - - - - - - - -
25/12:29pm W 19 25 - - - - - - - - - -
25/12:00pm NW 17 20 - - - - - - - - - -
25/11:30am NW 16 19 - - - - - - - - - -
25/11:00am NW 18 20 - - - - - - - - - -
25/10:30am NW 20 23 - - - - - - - - - -
25/10:00am NNW 16 19 - - - - - - - - - -
25/09:30am NNW 18 21 - - - - - - - - - -
25/09:00am NNW 18 23 - - - - - - - - - -
25/08:30am NNW 20 24 - - - - - - - - - -
25/08:00am NNW 18 22 - - - - - - - - - -
25/07:30am NNW 15 18 - - - - - - - - - -
25/07:00am NNW 14 17 - - - - - - - - - -
25/06:30am N 12 14 - - - - - - - - - -
25/06:00am N 13 15 - - - - - - - - - -
25/05:30am N 12 15 - - - - - - - - - -
25/05:00am NNW 12 14 - - - - - - - - - -
25/04:30am NNW 12 14 - - - - - - - - - -
25/04:00am NNW 11 13 - - - - - - - - - -
25/03:30am NNW 11 13 - - - - - - - - - -
25/03:00am NNW 10 12 - - - - - - - - - -
25/02:30am N 11 12 - - - - - - - - - -
25/02:00am N 10 12 - - - - - - - - - -
25/01:30am NNW 9 11 - - - - - - - - - -
25/01:00am N 7 8 - - - - - - - - - -
25/12:30am NNW 8 9 - - - - - - - - - -
25/12:00am NNW 6 7 - - - - - - - - - -
 
Date/Time
CST
Wind Sea
Height
m
Swell Vis
km
Cloud Weather Temp
°C
Press
hPa
Rain since
9am
mm
Dir  Spd
kts
Gust
kts
Height
m
Period
s
Dir
24/11:30pm N 7 8 - - - - - - - - - -
24/11:00pm N 7 8 - - - - - - - - - -
24/10:30pm N 5 6 - - - - - - - - - -
24/10:00pm N 5 6 - - - - - - - - - -
24/09:30pm W 6 8 - - - - - - - - - -
24/09:00pm NW 1 3 - - - - - - - - - -
24/08:30pm WSW 2 4 - - - - - - - - - -
24/08:00pm SSW 6 8 - - - - - - - - - -
24/07:30pm SSW 7 9 - - - - - - - - - -
24/07:00pm SW 6 8 - - - - - - - - - -
24/06:30pm SW 6 7 - - - - - - - - - -
24/06:00pm SSW 3 5 - - - - - - - - - -
24/05:30pm S 4 5 - - - - - - - - - -
24/05:00pm SSW 5 7 - - - - - - - - - -
24/04:30pm SSW 6 7 - - - - - - - - - -
24/04:00pm SSW 8 9 - - - - - - - - - -
24/03:30pm SSW 7 8 - - - - - - - - - -

Other formats

Comma delimited format used in spreadsheet applications
http://www.bom.gov.au/fwo/IDS60701/IDS60701.95675.axf

JavaScript Object Notation format (JSON) in row-major order
http://www.bom.gov.au/fwo/IDS60701/IDS60701.95675.json

Data quality

Most of these data are generated automatically and are frequently updated. Quality checks on data are not normally performed. It is possible for incorrect values to appear. Refer to information at About Latest Weather Observations and please check the disclaimer before using these data.